sensor_id;sensor_type;location;lat;lon;timestamp;P1;durP1;ratioP1;P2;durP2;ratioP2
9234;SDS011;4652;42.716;23.218;2023-08-31T00:01:57;6.87;;;2.70;;
9234;SDS011;4652;42.716;23.218;2023-08-31T00:08:41;5.27;;;2.60;;
9234;SDS011;4652;42.716;23.218;2023-08-31T00:15:23;5.13;;;2.50;;
9234;SDS011;4652;42.716;23.218;2023-08-31T00:22:05;4.13;;;2.60;;
9234;SDS011;4652;42.716;23.218;2023-08-31T00:28:49;3.10;;;2.40;;
9234;SDS011;4652;42.716;23.218;2023-08-31T00:35:30;4.23;;;2.67;;
9234;SDS011;4652;42.716;23.218;2023-08-31T00:42:15;4.27;;;2.60;;
9234;SDS011;4652;42.716;23.218;2023-08-31T00:48:59;2.90;;;2.23;;
9234;SDS011;4652;42.716;23.218;2023-08-31T00:55:44;3.77;;;2.30;;
9234;SDS011;4652;42.716;23.218;2023-08-31T01:08:21;4.07;;;2.60;;
9234;SDS011;4652;42.716;23.218;2023-08-31T07:08:20;3.80;;;2.55;;
9234;SDS011;4652;42.716;23.218;2023-08-31T07:15:01;3.30;;;2.58;;
9234;SDS011;4652;42.716;23.218;2023-08-31T07:21:43;4.03;;;2.20;;
9234;SDS011;4652;42.716;23.218;2023-08-31T07:28:28;4.50;;;2.13;;
9234;SDS011;4652;42.716;23.218;2023-08-31T07:35:11;2.65;;;2.00;;
9234;SDS011;4652;42.716;23.218;2023-08-31T07:41:53;2.83;;;2.13;;
9234;SDS011;4652;42.716;23.218;2023-08-31T07:48:37;3.08;;;2.13;;
9234;SDS011;4652;42.716;23.218;2023-08-31T07:55:19;4.53;;;2.05;;
9234;SDS011;4652;42.716;23.218;2023-08-31T08:02:01;3.72;;;2.22;;
9234;SDS011;4652;42.716;23.218;2023-08-31T08:08:45;3.08;;;2.72;;
9234;SDS011;4652;42.716;23.218;2023-08-31T08:15:28;4.03;;;3.63;;
9234;SDS011;4652;42.716;23.218;2023-08-31T08:22:09;6.45;;;3.92;;
9234;SDS011;4652;42.716;23.218;2023-08-31T08:28:53;4.57;;;4.03;;
9234;SDS011;4652;42.716;23.218;2023-08-31T08:35:36;5.55;;;4.60;;
9234;SDS011;4652;42.716;23.218;2023-08-31T08:42:19;5.40;;;3.90;;
9234;SDS011;4652;42.716;23.218;2023-08-31T08:49:06;5.20;;;4.00;;
9234;SDS011;4652;42.716;23.218;2023-08-31T08:55:48;3.45;;;3.15;;
9234;SDS011;4652;42.716;23.218;2023-08-31T09:02:30;3.80;;;3.35;;
9234;SDS011;4652;42.716;23.218;2023-08-31T09:09:14;4.03;;;3.63;;
9234;SDS011;4652;42.716;23.218;2023-08-31T09:15:57;4.25;;;3.80;;
9234;SDS011;4652;42.716;23.218;2023-08-31T09:22:40;4.70;;;4.05;;
9234;SDS011;4652;42.716;23.218;2023-08-31T09:29:26;4.47;;;3.97;;
9234;SDS011;4652;42.716;23.218;2023-08-31T09:36:08;5.10;;;4.18;;
9234;SDS011;4652;42.716;23.218;2023-08-31T09:42:50;4.68;;;4.28;;
9234;SDS011;4652;42.716;23.218;2023-08-31T09:49:34;7.25;;;4.30;;
9234;SDS011;4652;42.716;23.218;2023-08-31T09:56:19;5.22;;;4.72;;
9234;SDS011;4652;42.716;23.218;2023-08-31T10:03:04;4.32;;;3.92;;
9234;SDS011;4652;42.716;23.218;2023-08-31T10:09:48;5.18;;;4.68;;
9234;SDS011;4652;42.716;23.218;2023-08-31T10:16:30;4.90;;;4.10;;
9234;SDS011;4652;42.716;23.218;2023-08-31T10:23:13;4.78;;;4.10;;
9234;SDS011;4652;42.716;23.218;2023-08-31T10:29:57;3.80;;;3.45;;
9234;SDS011;4652;42.716;23.218;2023-08-31T10:36:39;5.63;;;3.92;;
9234;SDS011;4652;42.716;23.218;2023-08-31T10:43:24;7.15;;;4.10;;
9234;SDS011;4652;42.716;23.218;2023-08-31T10:50:18;4.47;;;3.83;;
9234;SDS011;4652;42.716;23.218;2023-08-31T10:57:02;4.93;;;3.58;;
9234;SDS011;4652;42.716;23.218;2023-08-31T11:10:52;4.35;;;3.65;;
9234;SDS011;4652;42.716;23.218;2023-08-31T11:17:36;3.58;;;3.28;;
9234;SDS011;4652;42.716;23.218;2023-08-31T11:24:20;4.25;;;3.15;;
9234;SDS011;4652;42.716;23.218;2023-08-31T11:31:04;3.35;;;2.92;;
9234;SDS011;4652;42.716;23.218;2023-08-31T11:37:48;3.25;;;2.95;;
9234;SDS011;4652;42.716;23.218;2023-08-31T11:44:31;4.68;;;2.78;;
9234;SDS011;4652;42.716;23.218;2023-08-31T11:51:15;6.45;;;3.13;;
9234;SDS011;4652;42.716;23.218;2023-08-31T11:57:57;3.63;;;3.10;;
9234;SDS011;4652;42.716;23.218;2023-08-31T12:04:42;5.50;;;3.50;;
9234;SDS011;4652;42.716;23.218;2023-08-31T12:11:26;4.70;;;3.10;;
9234;SDS011;4652;42.716;23.218;2023-08-31T12:18:08;3.50;;;2.80;;
9234;SDS011;4652;42.716;23.218;2023-08-31T12:24:51;4.35;;;3.03;;
9234;SDS011;4652;42.716;23.218;2023-08-31T12:31:35;2.97;;;2.67;;
9234;SDS011;4652;42.716;23.218;2023-08-31T12:38:17;3.08;;;2.78;;
9234;SDS011;4652;42.716;23.218;2023-08-31T12:45:00;3.40;;;3.10;;
9234;SDS011;4652;42.716;23.218;2023-08-31T12:51:43;3.95;;;2.65;;
9234;SDS011;4652;42.716;23.218;2023-08-31T12:58:25;3.88;;;2.70;;
9234;SDS011;4652;42.716;23.218;2023-08-31T13:08:21;3.83;;;2.70;;
9234;SDS011;4652;42.716;23.218;2023-08-31T13:15:03;4.70;;;2.80;;
9234;SDS011;4652;42.716;23.218;2023-08-31T13:21:45;4.03;;;2.33;;
9234;SDS011;4652;42.716;23.218;2023-08-31T13:28:29;3.95;;;3.13;;
9234;SDS011;4652;42.716;23.218;2023-08-31T13:35:11;3.38;;;2.42;;
9234;SDS011;4652;42.716;23.218;2023-08-31T13:41:52;4.63;;;2.65;;
9234;SDS011;4652;42.716;23.218;2023-08-31T13:48:36;10.43;;;3.30;;
9234;SDS011;4652;42.716;23.218;2023-08-31T13:55:18;3.25;;;2.78;;
9234;SDS011;4652;42.716;23.218;2023-08-31T14:02:00;5.53;;;2.75;;
9234;SDS011;4652;42.716;23.218;2023-08-31T14:08:45;4.32;;;2.80;;
9234;SDS011;4652;42.716;23.218;2023-08-31T14:15:28;3.35;;;2.70;;
9234;SDS011;4652;42.716;23.218;2023-08-31T14:22:10;5.20;;;3.05;;
9234;SDS011;4652;42.716;23.218;2023-08-31T14:28:54;5.20;;;2.80;;
9234;SDS011;4652;42.716;23.218;2023-08-31T14:35:36;2.90;;;2.58;;
9234;SDS011;4652;42.716;23.218;2023-08-31T14:42:18;3.50;;;2.90;;
9234;SDS011;4652;42.716;23.218;2023-08-31T14:49:02;4.95;;;2.95;;
9234;SDS011;4652;42.716;23.218;2023-08-31T14:55:48;4.78;;;3.08;;
9234;SDS011;4652;42.716;23.218;2023-08-31T15:02:30;3.60;;;2.63;;
9234;SDS011;4652;42.716;23.218;2023-08-31T15:09:13;3.85;;;2.50;;
9234;SDS011;4652;42.716;23.218;2023-08-31T15:15:55;5.05;;;3.03;;
9234;SDS011;4652;42.716;23.218;2023-08-31T15:22:37;4.10;;;3.00;;
9234;SDS011;4652;42.716;23.218;2023-08-31T15:29:20;5.80;;;3.20;;
9234;SDS011;4652;42.716;23.218;2023-08-31T15:36:03;5.73;;;3.50;;
9234;SDS011;4652;42.716;23.218;2023-08-31T15:42:49;4.00;;;2.73;;
9234;SDS011;4652;42.716;23.218;2023-08-31T15:49:33;5.23;;;3.17;;
9234;SDS011;4652;42.716;23.218;2023-08-31T15:56:15;7.07;;;3.63;;
9234;SDS011;4652;42.716;23.218;2023-08-31T16:02:57;4.27;;;2.90;;
9234;SDS011;4652;42.716;23.218;2023-08-31T16:09:40;3.73;;;2.90;;
9234;SDS011;4652;42.716;23.218;2023-08-31T16:16:22;3.87;;;2.80;;
9234;SDS011;4652;42.716;23.218;2023-08-31T16:23:06;3.67;;;2.80;;
9234;SDS011;4652;42.716;23.218;2023-08-31T16:29:50;4.40;;;2.40;;
9234;SDS011;4652;42.716;23.218;2023-08-31T16:36:33;3.30;;;2.60;;
9234;SDS011;4652;42.716;23.218;2023-08-31T16:43:15;3.63;;;2.50;;
9234;SDS011;4652;42.716;23.218;2023-08-31T16:49:59;5.70;;;2.60;;
9234;SDS011;4652;42.716;23.218;2023-08-31T16:56:41;3.60;;;2.50;;
9234;SDS011;4652;42.716;23.218;2023-08-31T17:03:23;3.03;;;2.33;;
9234;SDS011;4652;42.716;23.218;2023-08-31T17:10:07;5.13;;;3.17;;
9234;SDS011;4652;42.716;23.218;2023-08-31T17:16:49;5.40;;;3.00;;
9234;SDS011;4652;42.716;23.218;2023-08-31T17:23:31;5.73;;;2.90;;
9234;SDS011;4652;42.716;23.218;2023-08-31T17:30:15;5.87;;;3.10;;
9234;SDS011;4652;42.716;23.218;2023-08-31T17:36:57;7.67;;;2.83;;
9234;SDS011;4652;42.716;23.218;2023-08-31T17:43:39;5.53;;;2.77;;
9234;SDS011;4652;42.716;23.218;2023-08-31T17:50:22;3.03;;;2.10;;
9234;SDS011;4652;42.716;23.218;2023-08-31T17:57:05;2.97;;;2.30;;
9234;SDS011;4652;42.716;23.218;2023-08-31T18:03:47;4.10;;;2.37;;
9234;SDS011;4652;42.716;23.218;2023-08-31T18:10:31;5.20;;;2.70;;
9234;SDS011;4652;42.716;23.218;2023-08-31T18:17:13;3.33;;;2.30;;
9234;SDS011;4652;42.716;23.218;2023-08-31T18:23:55;3.83;;;2.67;;
9234;SDS011;4652;42.716;23.218;2023-08-31T18:30:38;4.60;;;3.13;;
9234;SDS011;4652;42.716;23.218;2023-08-31T18:37:20;4.03;;;3.20;;
9234;SDS011;4652;42.716;23.218;2023-08-31T18:44:03;2.87;;;2.57;;
9234;SDS011;4652;42.716;23.218;2023-08-31T18:50:54;5.50;;;3.03;;
9234;SDS011;4652;42.716;23.218;2023-08-31T18:57:36;3.93;;;3.40;;
9234;SDS011;4652;42.716;23.218;2023-08-31T21:25:33;5.73;;;3.67;;
9234;SDS011;4652;42.716;23.218;2023-08-31T21:32:15;3.33;;;3.03;;
9234;SDS011;4652;42.716;23.218;2023-08-31T21:38:57;3.50;;;2.90;;
9234;SDS011;4652;42.716;23.218;2023-08-31T21:45:41;4.30;;;2.90;;
9234;SDS011;4652;42.716;23.218;2023-08-31T21:52:23;3.10;;;2.80;;
9234;SDS011;4652;42.716;23.218;2023-08-31T21:59:05;3.87;;;2.77;;
9234;SDS011;4652;42.716;23.218;2023-08-31T22:05:49;4.83;;;3.03;;
9234;SDS011;4652;42.716;23.218;2023-08-31T22:12:31;4.30;;;3.30;;
9234;SDS011;4652;42.716;23.218;2023-08-31T22:19:13;3.47;;;2.83;;
9234;SDS011;4652;42.716;23.218;2023-08-31T22:25:57;3.53;;;3.00;;
9234;SDS011;4652;42.716;23.218;2023-08-31T22:32:39;4.20;;;3.00;;
9234;SDS011;4652;42.716;23.218;2023-08-31T22:39:22;4.03;;;2.80;;
9234;SDS011;4652;42.716;23.218;2023-08-31T22:46:05;5.30;;;2.87;;
9234;SDS011;4652;42.716;23.218;2023-08-31T22:52:47;4.40;;;2.87;;
9234;SDS011;4652;42.716;23.218;2023-08-31T22:59:29;5.27;;;2.90;;
9234;SDS011;4652;42.716;23.218;2023-08-31T23:06:12;5.83;;;3.33;;
9234;SDS011;4652;42.716;23.218;2023-08-31T23:12:54;4.83;;;2.70;;
9234;SDS011;4652;42.716;23.218;2023-08-31T23:19:36;3.80;;;2.97;;
9234;SDS011;4652;42.716;23.218;2023-08-31T23:26:20;5.03;;;3.37;;
9234;SDS011;4652;42.716;23.218;2023-08-31T23:33:02;4.67;;;3.40;;
9234;SDS011;4652;42.716;23.218;2023-08-31T23:39:44;3.40;;;3.10;;
9234;SDS011;4652;42.716;23.218;2023-08-31T23:46:28;3.93;;;3.23;;
9234;SDS011;4652;42.716;23.218;2023-08-31T23:53:10;5.03;;;3.03;;
9234;SDS011;4652;42.716;23.218;2023-08-31T23:59:52;4.33;;;3.00;;
